Nashville, Tennessee
Traffic Map
Current Weather Conditions
Nashville, Tennessee
Overcast Haze
Overcast
54°
Feels Like: 54°
Wind Chill: 54° Ceiling: 800
Heat Index: 54° Visibility: 6mi
Dew Point: 51° Wind: 10mph
Humidity: 90% Direction: 350° (N)
Pressure: 29.75in Gusts: 0mph
Raw Report DataKBNA 261253Z 35009KT 6SM BR BKN008 OVC011 12/11 A2975 RMK AO2 SLP069 T01220106
Traffic Incident Summary
Active as of:
Severity:
Category:
InformationThere was an issue retrieving the traffic information for this location. Please try a different location or try again shortly.
Advertisements
Track Severe Weather on mobile